Carnduff, Canada
Current Conditions -  °F | °C
As of 11:00 AM on Monday 22 Dec 2014 (Local Time) from CYEN Reporting Station
Haze Haze  
Wind Chill: 21°   Ceiling: 100
Heat Index: 28°   Visibility: 1mi
Dew Point: 28°   Wind: 7mph
Humidity: 100%   Direction: 20°NNE
Pressure: 29.59"   Gusts: NA
Location:  49.17°N, 101.78°W
Report Text: CYEN 221700Z 02006KT 1SM BR OVC001 M02/M02 A2959 RMK ST8SLP049
Loading
Personal Weather Stations






























Interactive Weather Map New forecast layout! Learn more

10-Day Weather Forecast

Advertisements
Track Severe Weather on mobile